sensor_id;sensor_type;location;lat;lon;timestamp;pressure;altitude;pressure_sealevel;temperature;humidity
30875;BME280;17581;43.222;27.924;2023-09-30T00:00:00;100792.59;;;21.82;39.67
30875;BME280;17581;43.222;27.924;2023-09-30T00:02:26;100784.94;;;21.78;39.64
30875;BME280;17581;43.222;27.924;2023-09-30T00:04:51;100791.28;;;21.78;39.68
30875;BME280;17581;43.222;27.924;2023-09-30T00:07:17;100777.91;;;21.68;39.80
30875;BME280;17581;43.222;27.924;2023-09-30T00:09:43;100792.13;;;21.79;39.68
30875;BME280;17581;43.222;27.924;2023-09-30T00:12:08;100759.88;;;21.59;39.88
30875;BME280;17581;43.222;27.924;2023-09-30T00:14:34;100790.44;;;21.78;39.73
30875;BME280;17581;43.222;27.924;2023-09-30T00:16:59;100779.22;;;21.73;39.75
30875;BME280;17581;43.222;27.924;2023-09-30T00:19:25;100775.16;;;21.68;39.91
30875;BME280;17581;43.222;27.924;2023-09-30T00:21:51;100779.34;;;21.64;40.07
30875;BME280;17581;43.222;27.924;2023-09-30T00:24:16;100775.94;;;21.62;40.16
30875;BME280;17581;43.222;27.924;2023-09-30T00:26:42;100787.72;;;21.63;40.21
30875;BME280;17581;43.222;27.924;2023-09-30T00:29:07;100780.13;;;21.58;40.48
30875;BME280;17581;43.222;27.924;2023-09-30T00:31:33;100778.03;;;21.60;40.41
30875;BME280;17581;43.222;27.924;2023-09-30T00:33:58;100779.72;;;21.61;40.52
30875;BME280;17581;43.222;27.924;2023-09-30T00:36:24;100775.94;;;21.62;40.36
30875;BME280;17581;43.222;27.924;2023-09-30T00:38:50;100777.25;;;21.66;40.43
30875;BME280;17581;43.222;27.924;2023-09-30T00:41:16;100773.19;;;21.62;40.40
30875;BME280;17581;43.222;27.924;2023-09-30T00:43:41;100777.94;;;21.54;40.39
30875;BME280;17581;43.222;27.924;2023-09-30T00:46:27;100783.50;;;21.60;40.48
30875;BME280;17581;43.222;27.924;2023-09-30T00:48:55;100772.47;;;21.54;40.65
30875;BME280;17581;43.222;27.924;2023-09-30T00:51:22;100776.63;;;21.50;40.79
30875;BME280;17581;43.222;27.924;2023-09-30T00:53:49;100784.00;;;21.49;40.98
30875;BME280;17581;43.222;27.924;2023-09-30T00:56:16;100785.13;;;21.55;40.70
30875;BME280;17581;43.222;27.924;2023-09-30T00:58:43;100784.91;;;21.56;41.00
30875;BME280;17581;43.222;27.924;2023-09-30T01:01:10;100776.69;;;21.56;40.70
30875;BME280;17581;43.222;27.924;2023-09-30T01:03:36;100779.44;;;21.56;40.78
30875;BME280;17581;43.222;27.924;2023-09-30T01:06:02;100777.94;;;21.54;40.72
30875;BME280;17581;43.222;27.924;2023-09-30T01:08:28;100777.47;;;21.50;41.22
30875;BME280;17581;43.222;27.924;2023-09-30T01:10:54;100765.03;;;21.48;40.86
30875;BME280;17581;43.222;27.924;2023-09-30T01:13:20;100764.47;;;21.52;40.87
30875;BME280;17581;43.222;27.924;2023-09-30T01:15:45;100773.09;;;21.56;40.90
30875;BME280;17581;43.222;27.924;2023-09-30T01:18:12;100775.41;;;21.52;40.75
30875;BME280;17581;43.222;27.924;2023-09-30T01:20:38;100775.97;;;21.48;41.11
30875;BME280;17581;43.222;27.924;2023-09-30T01:23:03;100778.53;;;21.49;41.00
30875;BME280;17581;43.222;27.924;2023-09-30T01:25:30;100779.56;;;21.48;41.08
30875;BME280;17581;43.222;27.924;2023-09-30T01:27:55;100781.25;;;21.49;40.98
30875;BME280;17581;43.222;27.924;2023-09-30T01:30:21;100751.94;;;21.29;41.09
30875;BME280;17581;43.222;27.924;2023-09-30T01:32:48;100783.31;;;21.47;41.19
30875;BME280;17581;43.222;27.924;2023-09-30T01:35:14;100758.94;;;21.31;41.37
30875;BME280;17581;43.222;27.924;2023-09-30T01:37:39;100749.88;;;21.16;41.59
30875;BME280;17581;43.222;27.924;2023-09-30T01:40:06;100787.03;;;21.40;41.48
30875;BME280;17581;43.222;27.924;2023-09-30T01:42:36;100786.56;;;21.36;41.46
30875;BME280;17581;43.222;27.924;2023-09-30T01:45:02;100783.94;;;21.28;41.64
30875;BME280;17581;43.222;27.924;2023-09-30T01:47:27;100776.13;;;21.25;41.81
30875;BME280;17581;43.222;27.924;2023-09-30T01:49:53;100765.25;;;21.17;41.63
30875;BME280;17581;43.222;27.924;2023-09-30T01:52:18;100766.97;;;21.18;41.81
30875;BME280;17581;43.222;27.924;2023-09-30T01:54:44;100781.75;;;21.24;41.89
30875;BME280;17581;43.222;27.924;2023-09-30T01:57:09;100780.72;;;21.10;41.96
30875;BME280;17581;43.222;27.924;2023-09-30T01:59:35;100785.16;;;21.11;42.21
30875;BME280;17581;43.222;27.924;2023-09-30T02:02:00;100791.66;;;21.10;42.36
30875;BME280;17581;43.222;27.924;2023-09-30T02:04:27;100788.63;;;21.05;42.52
30875;BME280;17581;43.222;27.924;2023-09-30T02:06:53;100755.06;;;20.82;42.60
30875;BME280;17581;43.222;27.924;2023-09-30T02:09:18;100772.38;;;20.89;42.83
30875;BME280;17581;43.222;27.924;2023-09-30T02:11:44;100791.34;;;20.90;43.06
30875;BME280;17581;43.222;27.924;2023-09-30T02:14:09;100793.88;;;20.92;43.10
30875;BME280;17581;43.222;27.924;2023-09-30T02:16:40;100793.88;;;20.92;43.06
30875;BME280;17581;43.222;27.924;2023-09-30T02:19:05;100796.19;;;20.88;43.33
30875;BME280;17581;43.222;27.924;2023-09-30T02:21:31;100773.88;;;20.77;43.27
30875;BME280;17581;43.222;27.924;2023-09-30T02:23:57;100789.16;;;20.86;43.47
30875;BME280;17581;43.222;27.924;2023-09-30T02:26:22;100787.88;;;20.82;43.76
30875;BME280;17581;43.222;27.924;2023-09-30T02:28:51;100784.81;;;20.77;43.66
30875;BME280;17581;43.222;27.924;2023-09-30T02:31:17;100740.50;;;20.52;43.77
30875;BME280;17581;43.222;27.924;2023-09-30T02:33:43;100787.19;;;20.80;43.98
30875;BME280;17581;43.222;27.924;2023-09-30T02:36:09;100799.81;;;20.81;44.07
30875;BME280;17581;43.222;27.924;2023-09-30T02:38:35;100789.63;;;20.75;44.16
30875;BME280;17581;43.222;27.924;2023-09-30T02:41:03;100795.59;;;20.78;44.25
30875;BME280;17581;43.222;27.924;2023-09-30T02:43:29;100787.66;;;20.69;44.26
30875;BME280;17581;43.222;27.924;2023-09-30T02:45:54;100782.94;;;20.62;44.40
30875;BME280;17581;43.222;27.924;2023-09-30T02:48:20;100791.78;;;20.64;44.56
30875;BME280;17581;43.222;27.924;2023-09-30T02:50:45;100787.16;;;20.65;44.63
30875;BME280;17581;43.222;27.924;2023-09-30T02:53:12;100767.66;;;20.53;44.70
30875;BME280;17581;43.222;27.924;2023-09-30T02:55:41;100781.78;;;20.57;44.98
30875;BME280;17581;43.222;27.924;2023-09-30T02:58:07;100784.41;;;20.50;44.99
30875;BME280;17581;43.222;27.924;2023-09-30T03:00:34;100760.34;;;20.31;45.16
30875;BME280;17581;43.222;27.924;2023-09-30T03:03:01;100783.75;;;20.48;45.17
30875;BME280;17581;43.222;27.924;2023-09-30T03:05:27;100792.78;;;20.49;45.50
30875;BME280;17581;43.222;27.924;2023-09-30T03:07:55;100750.84;;;20.27;45.36
30875;BME280;17581;43.222;27.924;2023-09-30T03:10:21;100781.03;;;20.48;45.42
30875;BME280;17581;43.222;27.924;2023-09-30T03:12:55;100745.03;;;20.22;45.53
30875;BME280;17581;43.222;27.924;2023-09-30T03:15:20;100783.44;;;20.43;45.55
30875;BME280;17581;43.222;27.924;2023-09-30T03:17:46;100779.97;;;20.49;45.48
30875;BME280;17581;43.222;27.924;2023-09-30T03:20:11;100778.09;;;20.50;45.56
30875;BME280;17581;43.222;27.924;2023-09-30T03:22:41;100763.00;;;20.39;45.51
30875;BME280;17581;43.222;27.924;2023-09-30T03:25:11;100781.03;;;20.48;45.63
30875;BME280;17581;43.222;27.924;2023-09-30T03:27:37;100747.03;;;20.28;45.80
30875;BME280;17581;43.222;27.924;2023-09-30T03:30:07;100777.63;;;20.46;45.82
30875;BME280;17581;43.222;27.924;2023-09-30T03:32:33;100782.22;;;20.46;45.84
30875;BME280;17581;43.222;27.924;2023-09-30T03:35:00;100777.31;;;20.41;46.05
30875;BME280;17581;43.222;27.924;2023-09-30T03:37:27;100783.06;;;20.46;46.17
30875;BME280;17581;43.222;27.924;2023-09-30T03:39:55;100774.88;;;20.46;46.17
30875;BME280;17581;43.222;27.924;2023-09-30T03:42:21;100759.91;;;20.42;46.16
30875;BME280;17581;43.222;27.924;2023-09-30T03:44:47;100762.66;;;20.42;46.16
30875;BME280;17581;43.222;27.924;2023-09-30T03:47:14;100732.00;;;20.32;46.12
30875;BME280;17581;43.222;27.924;2023-09-30T03:49:41;100775.66;;;20.55;46.05
30875;BME280;17581;43.222;27.924;2023-09-30T03:52:07;100752.75;;;20.41;45.91
30875;BME280;17581;43.222;27.924;2023-09-30T03:54:34;100774.44;;;20.57;46.10
30875;BME280;17581;43.222;27.924;2023-09-30T03:56:59;100771.72;;;20.57;46.21
30875;BME280;17581;43.222;27.924;2023-09-30T03:59:25;100779.72;;;20.59;46.28
30875;BME280;17581;43.222;27.924;2023-09-30T04:01:52;100744.25;;;20.36;46.35
30875;BME280;17581;43.222;27.924;2023-09-30T04:04:19;100775.75;;;20.61;46.29
30875;BME280;17581;43.222;27.924;2023-09-30T04:06:46;100780.38;;;20.61;46.50
30875;BME280;17581;43.222;27.924;2023-09-30T04:09:13;100725.53;;;20.25;46.64
30875;BME280;17581;43.222;27.924;2023-09-30T04:11:39;100778.31;;;20.63;46.84
30875;BME280;17581;43.222;27.924;2023-09-30T04:14:06;100777.84;;;20.59;46.79
30875;BME280;17581;43.222;27.924;2023-09-30T04:16:33;100740.78;;;20.42;47.03
30875;BME280;17581;43.222;27.924;2023-09-30T04:18:59;100772.00;;;20.62;46.97
30875;BME280;17581;43.222;27.924;2023-09-30T04:21:25;100766.16;;;20.66;47.14
30875;BME280;17581;43.222;27.924;2023-09-30T04:23:53;100769.53;;;20.68;46.95
30875;BME280;17581;43.222;27.924;2023-09-30T04:26:18;100765.78;;;20.69;47.13
30875;BME280;17581;43.222;27.924;2023-09-30T04:28:44;100697.72;;;20.22;47.10
30875;BME280;17581;43.222;27.924;2023-09-30T04:31:10;100769.53;;;20.68;47.02
30875;BME280;17581;43.222;27.924;2023-09-30T04:33:37;100754.56;;;20.63;47.04
30875;BME280;17581;43.222;27.924;2023-09-30T04:36:03;100769.16;;;20.71;46.98
30875;BME280;17581;43.222;27.924;2023-09-30T04:38:28;100782.66;;;20.72;46.86
30875;BME280;17581;43.222;27.924;2023-09-30T04:40:55;100770.88;;;20.72;47.10
30875;BME280;17581;43.222;27.924;2023-09-30T04:43:21;100767.88;;;20.67;46.83
30875;BME280;17581;43.222;27.924;2023-09-30T04:45:47;100786.53;;;20.78;47.08
30875;BME280;17581;43.222;27.924;2023-09-30T04:48:14;100780.03;;;20.79;46.90
30875;BME280;17581;43.222;27.924;2023-09-30T04:50:40;100777.19;;;20.72;47.27
30875;BME280;17581;43.222;27.924;2023-09-30T04:53:06;100752.59;;;20.57;47.17
30875;BME280;17581;43.222;27.924;2023-09-30T04:55:33;100776.63;;;20.77;47.37
30875;BME280;17581;43.222;27.924;2023-09-30T04:57:58;100783.78;;;20.78;47.29
30875;BME280;17581;43.222;27.924;2023-09-30T05:00:24;100796.34;;;20.87;47.19
30875;BME280;17581;43.222;27.924;2023-09-30T05:02:55;100789.09;;;20.94;47.20
30875;BME280;17581;43.222;27.924;2023-09-30T05:05:20;100777.09;;;20.95;47.33
30875;BME280;17581;43.222;27.924;2023-09-30T05:07:46;100791.56;;;21.03;47.48
30875;BME280;17581;43.222;27.924;2023-09-30T05:10:13;100771.63;;;20.95;47.45
30875;BME280;17581;43.222;27.924;2023-09-30T05:12:42;100767.03;;;20.95;47.65
30875;BME280;17581;43.222;27.924;2023-09-30T05:15:14;100775.81;;;21.20;47.55
30875;BME280;17581;43.222;27.924;2023-09-30T05:17:45;100800.34;;;21.28;47.67
30875;BME280;17581;43.222;27.924;2023-09-30T05:20:11;100757.63;;;21.12;48.04
30875;BME280;17581;43.222;27.924;2023-09-30T05:22:38;100787.50;;;21.43;47.96
30875;BME280;17581;43.222;27.924;2023-09-30T05:25:06;100799.38;;;21.50;48.06
30875;BME280;17581;43.222;27.924;2023-09-30T05:27:32;100773.91;;;21.35;48.14
30875;BME280;17581;43.222;27.924;2023-09-30T05:29:57;100799.06;;;21.60;47.85
30875;BME280;17581;43.222;27.924;2023-09-30T05:32:23;100803.97;;;21.64;48.31
30875;BME280;17581;43.222;27.924;2023-09-30T05:34:48;100800.66;;;21.69;48.24
30875;BME280;17581;43.222;27.924;2023-09-30T05:37:14;100786.50;;;21.65;48.23
30875;BME280;17581;43.222;27.924;2023-09-30T05:39:40;100801.38;;;21.78;48.41
30875;BME280;17581;43.222;27.924;2023-09-30T05:42:06;100774.38;;;21.75;48.57
30875;BME280;17581;43.222;27.924;2023-09-30T05:44:32;100794.38;;;21.90;48.53
30875;BME280;17581;43.222;27.924;2023-09-30T05:46:58;100793.59;;;21.96;48.74
30875;BME280;17581;43.222;27.924;2023-09-30T05:49:25;100800.66;;;22.05;48.94
30875;BME280;17581;43.222;27.924;2023-09-30T05:51:51;100803.69;;;22.10;48.96
30875;BME280;17581;43.222;27.924;2023-09-30T05:54:16;100804.56;;;22.17;49.41
30875;BME280;17581;43.222;27.924;2023-09-30T05:56:42;100806.34;;;22.24;49.27
30875;BME280;17581;43.222;27.924;2023-09-30T05:59:10;100764.25;;;22.11;49.70
30875;BME280;17581;43.222;27.924;2023-09-30T06:01:35;100807.97;;;22.40;48.81
30875;BME280;17581;43.222;27.924;2023-09-30T06:04:01;100809.69;;;22.41;48.80
30875;BME280;17581;43.222;27.924;2023-09-30T06:06:27;100815.16;;;22.41;48.97
30875;BME280;17581;43.222;27.924;2023-09-30T06:08:59;100817.69;;;22.43;49.09
30875;BME280;17581;43.222;27.924;2023-09-30T06:11:25;100780.19;;;22.22;48.85
30875;BME280;17581;43.222;27.924;2023-09-30T06:13:57;100808.88;;;22.47;48.89
30875;BME280;17581;43.222;27.924;2023-09-30T06:16:26;100807.88;;;22.55;48.86
30875;BME280;17581;43.222;27.924;2023-09-30T06:18:53;100806.53;;;22.65;48.71
30875;BME280;17581;43.222;27.924;2023-09-30T06:21:19;100811.63;;;22.68;48.62
30875;BME280;17581;43.222;27.924;2023-09-30T06:23:47;100804.50;;;22.74;48.64
30875;BME280;17581;43.222;27.924;2023-09-30T06:26:12;100806.63;;;22.78;48.44
30875;BME280;17581;43.222;27.924;2023-09-30T06:28:38;100797.81;;;22.83;48.69
30875;BME280;17581;43.222;27.924;2023-09-30T06:31:07;100805.03;;;22.91;48.69
30875;BME280;17581;43.222;27.924;2023-09-30T06:33:36;100787.06;;;22.88;48.58
30875;BME280;17581;43.222;27.924;2023-09-30T06:36:11;100802.53;;;22.96;48.31
30875;BME280;17581;43.222;27.924;2023-09-30T06:38:39;100791.56;;;22.96;48.08
30875;BME280;17581;43.222;27.924;2023-09-30T06:41:04;100796.66;;;22.99;47.70
30875;BME280;17581;43.222;27.924;2023-09-30T06:43:31;100776.81;;;23.03;47.29
30875;BME280;17581;43.222;27.924;2023-09-30T06:45:57;100806.91;;;23.24;47.41
30875;BME280;17581;43.222;27.924;2023-09-30T06:48:23;100798.72;;;23.31;47.21
30875;BME280;17581;43.222;27.924;2023-09-30T06:50:49;100788.41;;;23.33;46.28
30875;BME280;17581;43.222;27.924;2023-09-30T06:53:19;100795.69;;;23.47;46.01
30875;BME280;17581;43.222;27.924;2023-09-30T06:55:46;100774.69;;;23.33;45.53
30875;BME280;17581;43.222;27.924;2023-09-30T06:58:12;100811.34;;;23.53;45.43
30875;BME280;17581;43.222;27.924;2023-09-30T07:00:40;100809.66;;;23.59;45.30
30875;BME280;17581;43.222;27.924;2023-09-30T07:03:07;100802.06;;;23.54;44.96
30875;BME280;17581;43.222;27.924;2023-09-30T07:05:35;100807.56;;;23.54;45.05
30875;BME280;17581;43.222;27.924;2023-09-30T07:08:01;100806.72;;;23.60;44.78
30875;BME280;17581;43.222;27.924;2023-09-30T07:10:27;100806.50;;;23.62;45.11
30875;BME280;17581;43.222;27.924;2023-09-30T07:12:52;100810.19;;;23.82;45.30
30875;BME280;17581;43.222;27.924;2023-09-30T07:15:17;100811.47;;;23.93;45.38
30875;BME280;17581;43.222;27.924;2023-09-30T07:17:43;100809.41;;;24.08;44.81
30875;BME280;17581;43.222;27.924;2023-09-30T07:20:10;100801.84;;;24.16;44.20
30875;BME280;17581;43.222;27.924;2023-09-30T07:22:36;100814.13;;;24.27;43.49
30875;BME280;17581;43.222;27.924;2023-09-30T07:25:01;100813.47;;;24.31;43.50
30875;BME280;17581;43.222;27.924;2023-09-30T07:27:28;100816.25;;;24.38;43.69
30875;BME280;17581;43.222;27.924;2023-09-30T07:29:54;100809.72;;;24.46;43.40
30875;BME280;17581;43.222;27.924;2023-09-30T07:32:20;100803.13;;;24.53;43.57
30875;BME280;17581;43.222;27.924;2023-09-30T07:34:48;100812.03;;;24.68;42.84
30875;BME280;17581;43.222;27.924;2023-09-30T07:37:14;100813.31;;;24.72;42.40
30875;BME280;17581;43.222;27.924;2023-09-30T07:39:39;100790.44;;;24.65;41.87
30875;BME280;17581;43.222;27.924;2023-09-30T07:42:05;100815.00;;;24.86;41.58
30875;BME280;17581;43.222;27.924;2023-09-30T07:44:30;100817.97;;;24.92;41.25
30875;BME280;17581;43.222;27.924;2023-09-30T07:46:56;100819.22;;;24.96;41.12
30875;BME280;17581;43.222;27.924;2023-09-30T07:49:21;100812.44;;;25.05;40.78
30875;BME280;17581;43.222;27.924;2023-09-30T07:51:46;100822.16;;;25.14;40.64
30875;BME280;17581;43.222;27.924;2023-09-30T07:54:12;100815.16;;;25.18;39.98
30875;BME280;17581;43.222;27.924;2023-09-30T07:56:37;100805.63;;;25.14;39.83
30875;BME280;17581;43.222;27.924;2023-09-30T07:59:04;100800.63;;;24.98;40.07
30875;BME280;17581;43.222;27.924;2023-09-30T08:01:30;100827.03;;;25.12;40.17
30875;BME280;17581;43.222;27.924;2023-09-30T08:03:56;100795.09;;;24.98;40.29
30875;BME280;17581;43.222;27.924;2023-09-30T08:06:21;100826.84;;;25.13;40.25
30875;BME280;17581;43.222;27.924;2023-09-30T08:08:47;100826.00;;;25.13;40.22
30875;BME280;17581;43.222;27.924;2023-09-30T08:11:12;100737.31;;;24.71;39.87
30875;BME280;17581;43.222;27.924;2023-09-30T08:13:38;100818.75;;;25.25;39.43
30875;BME280;17581;43.222;27.924;2023-09-30T08:16:04;100811.56;;;25.24;39.02
30875;BME280;17581;43.222;27.924;2023-09-30T08:18:30;100806.66;;;25.32;38.41
30875;BME280;17581;43.222;27.924;2023-09-30T08:20:55;100808.75;;;25.43;38.21
30875;BME280;17581;43.222;27.924;2023-09-30T08:23:21;100808.53;;;25.45;37.54
30875;BME280;17581;43.222;27.924;2023-09-30T08:25:46;100803.88;;;25.45;37.37
30875;BME280;17581;43.222;27.924;2023-09-30T08:28:12;100806.84;;;25.44;37.57
30875;BME280;17581;43.222;27.924;2023-09-30T08:30:37;100785.66;;;25.51;37.94
30875;BME280;17581;43.222;27.924;2023-09-30T08:33:03;100809.69;;;25.75;37.46
30875;BME280;17581;43.222;27.924;2023-09-30T08:35:29;100811.78;;;25.86;37.39
30875;BME280;17581;43.222;27.924;2023-09-30T08:37:55;100785.28;;;25.85;37.38
30875;BME280;17581;43.222;27.924;2023-09-30T08:40:21;100804.66;;;26.04;37.09
30875;BME280;17581;43.222;27.924;2023-09-30T08:42:53;100790.00;;;26.10;36.79
30875;BME280;17581;43.222;27.924;2023-09-30T08:45:19;100801.75;;;26.30;36.73
30875;BME280;17581;43.222;27.924;2023-09-30T08:47:45;100796.16;;;26.43;36.90
30875;BME280;17581;43.222;27.924;2023-09-30T08:50:16;100805.84;;;26.52;36.31
30875;BME280;17581;43.222;27.924;2023-09-30T08:52:43;100802.22;;;26.51;35.85
30875;BME280;17581;43.222;27.924;2023-09-30T08:55:10;100804.53;;;26.55;35.78
30875;BME280;17581;43.222;27.924;2023-09-30T08:57:41;100789.63;;;26.62;34.93
30875;BME280;17581;43.222;27.924;2023-09-30T09:00:09;100782.03;;;26.58;35.01
30875;BME280;17581;43.222;27.924;2023-09-30T09:02:39;100808.16;;;26.55;35.43
30875;BME280;17581;43.222;27.924;2023-09-30T09:05:04;100786.19;;;26.67;35.31
30875;BME280;17581;43.222;27.924;2023-09-30T09:07:31;100769.88;;;26.90;35.23
30875;BME280;17581;43.222;27.924;2023-09-30T09:14:57;100771.72;;;27.14;34.22
30875;BME280;17581;43.222;27.924;2023-09-30T09:17:22;100802.50;;;27.36;34.00
30875;BME280;17581;43.222;27.924;2023-09-30T09:20:00;100795.81;;;27.25;34.41
30875;BME280;17581;43.222;27.924;2023-09-30T09:22:38;100800.38;;;26.95;34.70
30875;BME280;17581;43.222;27.924;2023-09-30T09:25:04;100770.41;;;26.80;34.72
30875;BME280;17581;43.222;27.924;2023-09-30T09:27:33;100796.19;;;26.92;34.25
30875;BME280;17581;43.222;27.924;2023-09-30T09:30:20;100780.78;;;26.78;34.41
30875;BME280;17581;43.222;27.924;2023-09-30T09:35:21;100772.72;;;27.01;34.94
30875;BME280;17581;43.222;27.924;2023-09-30T09:38:06;100788.97;;;27.10;34.59
30875;BME280;17581;43.222;27.924;2023-09-30T09:40:33;100776.72;;;27.06;34.70
30875;BME280;17581;43.222;27.924;2023-09-30T09:42:59;100783.00;;;27.13;34.54
30875;BME280;17581;43.222;27.924;2023-09-30T09:45:27;100774.72;;;27.13;34.82
30875;BME280;17581;43.222;27.924;2023-09-30T09:47:54;100777.78;;;27.23;34.68
30875;BME280;17581;43.222;27.924;2023-09-30T09:50:22;100768.91;;;27.39;35.13
30875;BME280;17581;43.222;27.924;2023-09-30T09:52:49;100776.28;;;27.45;34.83
30875;BME280;17581;43.222;27.924;2023-09-30T09:55:23;100739.56;;;27.38;34.65
30875;BME280;17581;43.222;27.924;2023-09-30T09:57:49;100779.06;;;27.45;34.90
30875;BME280;17581;43.222;27.924;2023-09-30T10:00:20;100775.44;;;27.44;34.40
30875;BME280;17581;43.222;27.924;2023-09-30T10:02:47;100765.88;;;27.40;33.70
30875;BME280;17581;43.222;27.924;2023-09-30T10:05:14;100771.59;;;27.27;33.49
30875;BME280;17581;43.222;27.924;2023-09-30T10:08:07;100780.16;;;27.19;34.24
30875;BME280;17581;43.222;27.924;2023-09-30T10:10:36;100776.28;;;27.27;33.97
30875;BME280;17581;43.222;27.924;2023-09-30T10:13:03;100770.75;;;27.27;34.02
30875;BME280;17581;43.222;27.924;2023-09-30T10:20:28;100735.59;;;27.16;35.40
30875;BME280;17581;43.222;27.924;2023-09-30T10:25:43;100767.44;;;27.18;33.68
30875;BME280;17581;43.222;27.924;2023-09-30T10:31:18;100764.06;;;27.16;33.67
30875;BME280;17581;43.222;27.924;2023-09-30T10:36:38;100759.53;;;27.40;34.40
30875;BME280;17581;43.222;27.924;2023-09-30T10:39:05;100750.94;;;27.30;34.17
30875;BME280;17581;43.222;27.924;2023-09-30T10:46:52;100753.69;;;27.66;33.55
30875;BME280;17581;43.222;27.924;2023-09-30T10:51:56;100742.16;;;27.69;34.22
30875;BME280;17581;43.222;27.924;2023-09-30T10:54:26;100744.22;;;27.74;34.47
30875;BME280;17581;43.222;27.924;2023-09-30T10:56:52;100711.91;;;27.74;34.54
30875;BME280;17581;43.222;27.924;2023-09-30T10:59:31;100720.09;;;27.81;34.88
30875;BME280;17581;43.222;27.924;2023-09-30T11:01:57;100739.00;;;27.95;34.42
30875;BME280;17581;43.222;27.924;2023-09-30T11:04:23;100721.16;;;27.80;34.49
30875;BME280;17581;43.222;27.924;2023-09-30T11:06:49;100736.72;;;27.92;34.45
30875;BME280;17581;43.222;27.924;2023-09-30T11:09:17;100735.19;;;27.96;34.66
30875;BME280;17581;43.222;27.924;2023-09-30T11:11:46;100722.78;;;27.99;35.00
30875;BME280;17581;43.222;27.924;2023-09-30T11:14:31;100736.56;;;28.05;35.52
30875;BME280;17581;43.222;27.924;2023-09-30T11:16:58;100736.34;;;28.07;36.18
30875;BME280;17581;43.222;27.924;2023-09-30T11:19:49;100735.59;;;28.12;36.04
30875;BME280;17581;43.222;27.924;2023-09-30T11:22:15;100728.69;;;28.02;36.23
30875;BME280;17581;43.222;27.924;2023-09-30T11:24:41;100704.16;;;27.94;36.10
30875;BME280;17581;43.222;27.924;2023-09-30T11:27:06;100721.91;;;28.17;36.06
30875;BME280;17581;43.222;27.924;2023-09-30T11:29:32;100724.44;;;28.06;36.52
30875;BME280;17581;43.222;27.924;2023-09-30T11:31:57;100713.09;;;28.08;35.66
30875;BME280;17581;43.222;27.924;2023-09-30T11:34:36;100718.72;;;28.01;36.30
30875;BME280;17581;43.222;27.924;2023-09-30T11:37:03;100728.69;;;27.91;37.64
30875;BME280;17581;43.222;27.924;2023-09-30T11:39:29;100721.28;;;27.73;37.75
30875;BME280;17581;43.222;27.924;2023-09-30T11:41:56;100719.03;;;27.82;37.33
30875;BME280;17581;43.222;27.924;2023-09-30T11:44:23;100717.13;;;27.94;36.16
30875;BME280;17581;43.222;27.924;2023-09-30T11:46:59;100715.22;;;27.94;36.04
30875;BME280;17581;43.222;27.924;2023-09-30T11:49:33;100709.81;;;27.99;40.39
30875;BME280;17581;43.222;27.924;2023-09-30T11:52:06;100696.59;;;28.01;46.26
30875;BME280;17581;43.222;27.924;2023-09-30T11:54:34;100704.59;;;28.09;47.96
30875;BME280;17581;43.222;27.924;2023-09-30T11:57:02;100712.25;;;28.07;48.11
30875;BME280;17581;43.222;27.924;2023-09-30T11:59:29;100711.94;;;28.16;45.69
30875;BME280;17581;43.222;27.924;2023-09-30T12:01:55;100704.81;;;28.08;43.69
30875;BME280;17581;43.222;27.924;2023-09-30T12:04:21;100709.97;;;28.04;40.65
30875;BME280;17581;43.222;27.924;2023-09-30T12:06:47;100705.50;;;27.92;38.54
30875;BME280;17581;43.222;27.924;2023-09-30T12:09:16;100693.44;;;27.86;38.67
30875;BME280;17581;43.222;27.924;2023-09-30T12:11:47;100651.03;;;27.51;38.22
30875;BME280;17581;43.222;27.924;2023-09-30T12:14:12;100705.72;;;27.90;38.81
30875;BME280;17581;43.222;27.924;2023-09-30T12:16:38;100707.53;;;27.96;37.29
30875;BME280;17581;43.222;27.924;2023-09-30T12:19:04;100685.88;;;27.93;37.36
30875;BME280;17581;43.222;27.924;2023-09-30T12:21:31;100684.34;;;27.97;38.36
30875;BME280;17581;43.222;27.924;2023-09-30T12:23:57;100694.38;;;28.10;44.01
30875;BME280;17581;43.222;27.924;2023-09-30T12:26:23;100699.19;;;28.15;46.30
30875;BME280;17581;43.222;27.924;2023-09-30T12:28:49;100688.59;;;28.12;42.07
30875;BME280;17581;43.222;27.924;2023-09-30T12:31:15;100690.13;;;28.07;39.20
30875;BME280;17581;43.222;27.924;2023-09-30T12:33:40;100687.91;;;27.86;38.44
30875;BME280;17581;43.222;27.924;2023-09-30T12:36:06;100693.78;;;27.78;38.95
30875;BME280;17581;43.222;27.924;2023-09-30T12:38:33;100679.09;;;27.78;38.76
30875;BME280;17581;43.222;27.924;2023-09-30T12:40:58;100670.91;;;27.71;38.89
30875;BME280;17581;43.222;27.924;2023-09-30T12:43:24;100641.06;;;27.32;39.18
30875;BME280;17581;43.222;27.924;2023-09-30T12:45:50;100663.16;;;27.32;39.50
30875;BME280;17581;43.222;27.924;2023-09-30T12:48:15;100675.91;;;27.33;39.48
30875;BME280;17581;43.222;27.924;2023-09-30T12:50:42;100671.69;;;27.30;39.24
30875;BME280;17581;43.222;27.924;2023-09-30T12:53:07;100674.66;;;27.29;38.64
30875;BME280;17581;43.222;27.924;2023-09-30T12:55:33;100670.84;;;27.30;38.67
30875;BME280;17581;43.222;27.924;2023-09-30T12:57:58;100657.63;;;27.32;38.77
30875;BME280;17581;43.222;27.924;2023-09-30T13:00:25;100656.34;;;27.16;39.03
30875;BME280;17581;43.222;27.924;2023-09-30T13:02:51;100653.44;;;27.29;40.11
30875;BME280;17581;43.222;27.924;2023-09-30T13:05:17;100651.97;;;27.27;40.17
30875;BME280;17581;43.222;27.924;2023-09-30T13:07:43;100661.84;;;27.34;40.32